createdAt,value
2019-05-22T00:00:47.659Z,1005.42
2019-05-22T00:01:47.642Z,1005.43
2019-05-22T00:02:47.660Z,1005.43
2019-05-22T00:03:47.625Z,1005.46
2019-05-22T00:04:47.617Z,1005.41
2019-05-22T00:05:47.612Z,1005.43
2019-05-22T00:06:47.643Z,1005.42
2019-05-22T00:07:47.591Z,1005.40
2019-05-22T00:08:47.587Z,1005.42
2019-05-22T00:09:47.561Z,1005.42
2019-05-22T00:10:47.546Z,1005.39
2019-05-22T00:13:09.830Z,1005.43
2019-05-22T00:14:09.809Z,1005.43
2019-05-22T00:15:18.052Z,1005.51
2019-05-22T00:16:09.785Z,1005.47
2019-05-22T00:17:09.771Z,1005.45
2019-05-22T00:18:09.810Z,1005.54
2019-05-22T00:19:09.756Z,1005.51
2019-05-22T00:20:09.740Z,1005.55
2019-05-22T00:21:09.764Z,1005.55
2019-05-22T00:22:09.718Z,1005.54
2019-05-22T00:23:09.726Z,1005.59
2019-05-22T00:24:09.697Z,1005.64
2019-05-22T00:25:09.724Z,1005.71
2019-05-22T00:26:09.668Z,1005.67
2019-05-22T00:27:09.669Z,1005.64
2019-05-22T00:28:09.673Z,1005.70
2019-05-22T00:29:09.650Z,1005.70
2019-05-22T00:30:09.645Z,1005.72
2019-05-22T00:31:09.638Z,1005.70
2019-05-22T00:32:09.611Z,1005.65
2019-05-22T00:33:09.651Z,1005.67
2019-05-22T00:34:09.583Z,1005.75
2019-05-22T00:35:09.586Z,1005.72
2019-05-22T00:36:09.568Z,1005.72
2019-05-22T00:37:09.551Z,1005.69
2019-05-22T00:38:09.975Z,1005.73
2019-05-22T00:39:09.544Z,1005.62
2019-05-22T00:40:09.525Z,1005.75
2019-05-22T00:41:09.510Z,1005.76
2019-05-22T00:42:09.505Z,1005.72
2019-05-22T00:43:14.046Z,1005.81
2019-05-22T00:44:10.502Z,1005.74
2019-05-22T00:45:09.466Z,1005.78
2019-05-22T00:46:09.480Z,1005.77
2019-05-22T00:47:09.442Z,1005.80
2019-05-22T00:48:09.436Z,1005.85
2019-05-22T00:49:09.443Z,1005.82
2019-05-22T00:50:09.414Z,1005.85
2019-05-22T00:51:09.408Z,1005.80
2019-05-22T00:52:09.390Z,1005.80
2019-05-22T00:53:09.378Z,1005.84
2019-05-22T00:54:09.389Z,1005.84
2019-05-22T00:55:09.371Z,1005.90
2019-05-22T00:56:09.342Z,1005.84
2019-05-22T00:57:09.336Z,1005.85
2019-05-22T00:58:09.323Z,1005.88
2019-05-22T00:59:09.335Z,1005.88
2019-05-22T01:00:09.306Z,1005.95
2019-05-22T01:01:09.285Z,1005.92
2019-05-22T01:02:09.278Z,1005.90
2019-05-22T01:03:09.278Z,1005.91
2019-05-22T01:04:09.275Z,1005.95
2019-05-22T01:05:09.251Z,1005.90
2019-05-22T01:06:09.246Z,1005.93
2019-05-22T01:07:09.223Z,1005.96
2019-05-22T01:08:09.215Z,1005.99
2019-05-22T01:09:09.227Z,1005.97
2019-05-22T01:10:09.199Z,1006.04
2019-05-22T01:11:09.184Z,1005.97
2019-05-22T01:12:09.170Z,1006.07
2019-05-22T01:13:09.156Z,1006.05
2019-05-22T01:14:09.181Z,1006.06
2019-05-22T01:15:09.130Z,1006.05
2019-05-22T01:16:09.130Z,1006.15
2019-05-22T01:17:09.113Z,1006.08
2019-05-22T01:18:09.121Z,1006.06
2019-05-22T01:19:09.097Z,1006.07
2019-05-22T01:20:09.105Z,1006.06
2019-05-22T01:21:09.073Z,1006.06
2019-05-22T01:22:09.082Z,1006.08
2019-05-22T01:23:09.114Z,1005.99
2019-05-22T01:24:09.037Z,1006.03
2019-05-22T01:25:09.039Z,1006.00
2019-05-22T01:26:09.015Z,1006.02
2019-05-22T01:27:09.005Z,1006.04
2019-05-22T01:28:09.021Z,1006.02
2019-05-22T01:29:08.990Z,1005.97
2019-05-22T01:30:09.002Z,1006.02
2019-05-22T01:31:08.995Z,1006.00
2019-05-22T01:32:08.966Z,1006.03
2019-05-22T01:33:08.951Z,1005.97
2019-05-22T01:34:08.929Z,1006.03
2019-05-22T01:35:08.950Z,1006.01
2019-05-22T01:36:08.903Z,1006.02
2019-05-22T01:37:08.907Z,1006.01
2019-05-22T01:38:08.883Z,1006.06
2019-05-22T01:39:08.878Z,1006.03
2019-05-22T01:40:08.896Z,1006.10
2019-05-22T01:41:08.863Z,1006.04
2019-05-22T01:42:08.843Z,1006.06
2019-05-22T01:43:08.844Z,1006.09
2019-05-22T01:44:08.827Z,1006.08
2019-05-22T01:45:08.826Z,1006.08
2019-05-22T01:46:08.813Z,1006.12
2019-05-22T01:47:08.791Z,1006.13
2019-05-22T01:48:08.777Z,1006.16
2019-05-22T01:49:08.769Z,1006.20
2019-05-22T01:50:08.781Z,1006.15
2019-05-22T01:51:08.771Z,1006.15
2019-05-22T01:52:08.737Z,1006.19
2019-05-22T01:53:08.723Z,1006.18
2019-05-22T01:54:08.721Z,1006.23
2019-05-22T01:55:08.706Z,1006.25
2019-05-22T01:56:08.748Z,1006.24
2019-05-22T01:57:08.677Z,1006.28
2019-05-22T01:58:08.662Z,1006.25
2019-05-22T01:59:08.654Z,1006.29
2019-05-22T02:00:08.652Z,1006.27
2019-05-22T02:01:08.662Z,1006.29
2019-05-22T02:02:08.630Z,1006.32
2019-05-22T02:03:08.612Z,1006.30
2019-05-22T02:04:08.607Z,1006.24
2019-05-22T02:05:08.589Z,1006.25
2019-05-22T02:06:08.600Z,1006.20
2019-05-22T02:07:08.572Z,1006.30
2019-05-22T02:08:08.568Z,1006.19
2019-05-22T02:09:08.555Z,1006.18
2019-05-22T02:10:08.548Z,1006.15
2019-05-22T02:11:08.696Z,1006.17
2019-05-22T02:12:08.520Z,1006.22
2019-05-22T02:13:08.512Z,1006.25
2019-05-22T02:14:08.494Z,1006.25
2019-05-22T02:15:08.482Z,1006.22
2019-05-22T02:16:08.497Z,1006.29
2019-05-22T02:17:08.467Z,1006.26
2019-05-22T02:18:08.456Z,1006.34
2019-05-22T02:19:08.441Z,1006.27
2019-05-22T02:20:09.079Z,1006.27
2019-05-22T02:21:08.453Z,1006.27
2019-05-22T02:22:08.424Z,1006.29
2019-05-22T02:23:08.397Z,1006.30
2019-05-22T02:24:08.392Z,1006.29
2019-05-22T02:25:08.380Z,1006.32
2019-05-22T02:26:08.363Z,1006.30
2019-05-22T02:27:08.397Z,1006.28
2019-05-22T02:28:08.344Z,1006.31
2019-05-22T02:29:08.330Z,1006.30
2019-05-22T02:30:08.320Z,1006.28
2019-05-22T02:31:08.306Z,1006.30
2019-05-22T02:32:08.313Z,1006.28
2019-05-22T02:33:08.291Z,1006.32
2019-05-22T02:34:08.295Z,1006.21
2019-05-22T02:35:08.267Z,1006.29
2019-05-22T02:36:08.261Z,1006.28
2019-05-22T02:37:08.278Z,1006.36
2019-05-22T02:38:08.229Z,1006.36
2019-05-22T02:39:08.232Z,1006.32
2019-05-22T02:40:08.213Z,1006.34
2019-05-22T02:41:08.211Z,1006.40
2019-05-22T02:42:08.221Z,1006.37
2019-05-22T02:43:08.178Z,1006.39
2019-05-22T02:44:08.163Z,1006.37
2019-05-22T02:45:08.159Z,1006.40
2019-05-22T02:46:08.147Z,1006.43
2019-05-22T02:47:19.267Z,1006.42
2019-05-22T02:48:09.120Z,1006.47
2019-05-22T02:49:08.110Z,1006.39
2019-05-22T02:50:08.112Z,1006.42
2019-05-22T02:51:08.087Z,1006.43
2019-05-22T02:52:08.124Z,1006.48
2019-05-22T02:53:08.071Z,1006.46
2019-05-22T02:54:08.063Z,1006.46
2019-05-22T02:55:08.052Z,1006.56
2019-05-22T02:56:08.036Z,1006.54
2019-05-22T02:57:08.030Z,1006.52
2019-05-22T02:58:08.037Z,1006.51
2019-05-22T02:59:08.015Z,1006.52
2019-05-22T03:00:07.994Z,1006.51
2019-05-22T03:01:07.980Z,1006.49
2019-05-22T03:02:07.974Z,1006.52
2019-05-22T03:03:07.999Z,1006.52
2019-05-22T03:04:07.963Z,1006.48
2019-05-22T03:05:07.933Z,1006.48
2019-05-22T03:06:07.926Z,1006.53
2019-05-22T03:07:07.915Z,1006.53
2019-05-22T03:08:07.916Z,1006.52
2019-05-22T03:09:07.896Z,1006.51
2019-05-22T03:10:07.906Z,1006.47
2019-05-22T03:11:07.894Z,1006.52
2019-05-22T03:12:07.855Z,1006.58
2019-05-22T03:13:07.899Z,1006.53
2019-05-22T03:14:07.850Z,1006.62
2019-05-22T03:15:07.828Z,1006.58
2019-05-22T03:16:07.828Z,1006.57
2019-05-22T03:17:07.818Z,1006.67
2019-05-22T03:18:07.814Z,1006.61
2019-05-22T03:19:09.246Z,1006.68
2019-05-22T03:20:07.771Z,1006.69
2019-05-22T03:21:07.775Z,1006.74
2019-05-22T03:22:07.770Z,1006.69
2019-05-22T03:23:07.775Z,1006.68
2019-05-22T03:24:07.760Z,1006.69
2019-05-22T03:25:07.725Z,1006.69
2019-05-22T03:26:07.724Z,1006.75
2019-05-22T03:27:07.700Z,1006.76
2019-05-22T03:28:07.691Z,1006.72
2019-05-22T03:29:07.692Z,1006.75
2019-05-22T03:30:07.677Z,1006.74
2019-05-22T03:31:07.659Z,1006.82
2019-05-22T03:32:07.644Z,1006.70
2019-05-22T03:33:07.653Z,1006.78
2019-05-22T03:34:07.649Z,1006.80
2019-05-22T03:35:07.616Z,1006.82
2019-05-22T03:36:07.595Z,1006.73
2019-05-22T03:37:07.601Z,1006.68
2019-05-22T03:38:07.596Z,1006.74
2019-05-22T03:39:07.593Z,1006.75
2019-05-22T03:40:07.556Z,1006.76
2019-05-22T03:41:07.547Z,1006.73
2019-05-22T03:42:07.532Z,1006.73
2019-05-22T03:43:07.525Z,1006.75
2019-05-22T03:44:07.527Z,1006.77
2019-05-22T03:45:07.499Z,1006.75
2019-05-22T03:46:15.801Z,1006.80
2019-05-22T03:47:07.481Z,1006.74
2019-05-22T03:48:07.474Z,1006.82
2019-05-22T03:49:07.483Z,1006.83
2019-05-22T03:50:07.450Z,1006.84
2019-05-22T03:51:07.435Z,1006.80
2019-05-22T03:52:07.422Z,1006.84
2019-05-22T03:53:07.413Z,1006.85
2019-05-22T03:54:07.425Z,1006.83
2019-05-22T03:55:07.392Z,1006.86
2019-05-22T03:56:07.385Z,1006.87
2019-05-22T03:57:07.374Z,1006.88
2019-05-22T03:58:07.359Z,1006.85
2019-05-22T03:59:07.346Z,1006.86
2019-05-22T04:00:07.353Z,1006.89
2019-05-22T04:01:07.327Z,1006.89
2019-05-22T04:02:07.341Z,1006.84
2019-05-22T04:03:07.299Z,1006.85
2019-05-22T04:04:07.322Z,1006.94
2019-05-22T04:05:07.301Z,1006.90
2019-05-22T04:06:07.267Z,1006.91
2019-05-22T04:07:07.261Z,1006.84
2019-05-22T04:08:07.255Z,1007.02
2019-05-22T04:09:07.233Z,1006.99
2019-05-22T04:10:07.243Z,1007.00
2019-05-22T04:11:07.209Z,1007.01
2019-05-22T04:12:07.214Z,1006.98
2019-05-22T04:13:07.187Z,1006.99
2019-05-22T04:14:07.191Z,1006.98
2019-05-22T04:15:07.201Z,1007.04
2019-05-22T04:16:07.160Z,1007.03
2019-05-22T04:17:07.150Z,1007.08
2019-05-22T04:18:07.150Z,1006.98
2019-05-22T04:19:07.130Z,1007.07
2019-05-22T04:20:07.135Z,1007.11
2019-05-22T04:21:07.106Z,1007.09
2019-05-22T04:22:07.101Z,1007.12
2019-05-22T04:23:07.097Z,1007.09
2019-05-22T04:24:07.076Z,1007.12
2019-05-22T04:25:07.194Z,1007.09
2019-05-22T04:26:07.048Z,1007.15
2019-05-22T04:27:07.043Z,1007.12
2019-05-22T04:28:07.028Z,1007.09
2019-05-22T04:29:07.018Z,1007.09
2019-05-22T04:30:07.031Z,1007.13
2019-05-22T04:31:06.997Z,1007.14
2019-05-22T04:32:06.984Z,1007.16
2019-05-22T04:33:06.980Z,1007.12
2019-05-22T04:34:06.968Z,1007.12
2019-05-22T04:35:06.959Z,1007.14
2019-05-22T04:36:10.061Z,1007.14
2019-05-22T04:37:06.939Z,1007.20
2019-05-22T04:38:06.924Z,1007.20
2019-05-22T04:39:06.909Z,1007.16
2019-05-22T04:40:06.910Z,1007.22
2019-05-22T04:41:06.912Z,1007.17
2019-05-22T04:42:06.877Z,1007.23
2019-05-22T04:43:06.866Z,1007.19
2019-05-22T04:44:06.857Z,1007.16
2019-05-22T04:45:06.845Z,1007.25
2019-05-22T04:46:06.870Z,1007.29
2019-05-22T04:47:06.830Z,1007.23
2019-05-22T04:48:06.809Z,1007.17
2019-05-22T04:49:06.815Z,1007.19
2019-05-22T04:50:08.176Z,1007.25
2019-05-22T04:51:06.795Z,1007.21
2019-05-22T04:52:06.775Z,1007.23
2019-05-22T04:53:06.758Z,1007.22
2019-05-22T04:54:06.753Z,1007.17
2019-05-22T04:55:06.742Z,1007.24
2019-05-22T04:56:06.732Z,1007.23
2019-05-22T04:57:06.716Z,1007.27
2019-05-22T04:58:06.721Z,1007.19
2019-05-22T04:59:06.710Z,1007.25
2019-05-22T05:00:06.682Z,1007.21
2019-05-22T05:01:06.692Z,1007.28
2019-05-22T05:02:06.667Z,1007.25
2019-05-22T05:03:06.651Z,1007.25
2019-05-22T05:04:06.683Z,1007.27
2019-05-22T05:05:06.631Z,1007.31
2019-05-22T05:06:07.134Z,1007.37
2019-05-22T05:07:06.609Z,1007.47
2019-05-22T05:08:06.597Z,1007.30
2019-05-22T05:09:06.581Z,1007.36
2019-05-22T05:10:06.579Z,1007.40
2019-05-22T05:11:06.590Z,1007.38
2019-05-22T05:12:06.548Z,1007.44
2019-05-22T05:13:06.534Z,1007.45
2019-05-22T05:14:06.548Z,1007.50
2019-05-22T05:15:06.532Z,1007.50
2019-05-22T05:16:06.542Z,1007.44
2019-05-22T05:17:06.497Z,1007.52
2019-05-22T05:18:06.479Z,1007.45
2019-05-22T05:19:06.480Z,1007.50
2019-05-22T05:20:21.378Z,1007.54
2019-05-22T05:21:07.486Z,1007.53
2019-05-22T05:22:06.436Z,1007.57
2019-05-22T05:23:06.433Z,1007.54
2019-05-22T05:24:06.430Z,1007.58
2019-05-22T05:25:06.414Z,1007.61
2019-05-22T05:26:06.422Z,1007.47
2019-05-22T05:27:06.394Z,1007.61
2019-05-22T05:28:06.379Z,1007.51
2019-05-22T05:29:06.369Z,1007.54
2019-05-22T05:30:06.351Z,1007.56
2019-05-22T05:31:06.365Z,1007.58
2019-05-22T05:32:06.338Z,1007.56
2019-05-22T05:33:06.326Z,1007.59
2019-05-22T05:34:06.318Z,1007.60
2019-05-22T05:35:06.304Z,1007.60
2019-05-22T05:36:06.321Z,1007.53
2019-05-22T05:37:06.274Z,1007.52
2019-05-22T05:38:06.267Z,1007.54
2019-05-22T05:39:06.258Z,1007.57
2019-05-22T05:40:06.256Z,1007.67
2019-05-22T05:41:06.241Z,1007.54
2019-05-22T05:42:06.249Z,1007.56
2019-05-22T05:43:06.212Z,1007.61
2019-05-22T05:44:06.204Z,1007.61
2019-05-22T05:45:06.190Z,1007.60
2019-05-22T05:46:06.204Z,1007.61
2019-05-22T05:47:06.189Z,1007.62
2019-05-22T05:48:06.156Z,1007.69
2019-05-22T05:49:06.171Z,1007.58
2019-05-22T05:50:06.146Z,1007.63
2019-05-22T05:51:06.122Z,1007.67
2019-05-22T05:52:06.133Z,1007.61
2019-05-22T05:53:06.167Z,1007.58
2019-05-22T05:54:06.090Z,1007.63
2019-05-22T05:55:06.086Z,1007.67
2019-05-22T05:56:06.070Z,1007.61
2019-05-22T05:57:06.105Z,1007.63
2019-05-22T05:58:06.047Z,1007.63
2019-05-22T05:59:06.046Z,1007.63
2019-05-22T06:00:06.036Z,1007.68
2019-05-22T06:01:06.021Z,1007.68
2019-05-22T06:02:06.026Z,1007.64
2019-05-22T06:03:06.024Z,1007.67
2019-05-22T06:04:06.009Z,1007.65
2019-05-22T06:05:05.968Z,1007.66
2019-05-22T06:06:05.964Z,1007.70
2019-05-22T06:07:05.955Z,1007.64
2019-05-22T06:08:05.962Z,1007.68
2019-05-22T06:09:05.929Z,1007.67
2019-05-22T06:10:05.913Z,1007.62
2019-05-22T06:11:05.904Z,1007.58
2019-05-22T06:12:06.101Z,1007.73
2019-05-22T06:13:05.908Z,1007.62
2019-05-22T06:14:05.873Z,1007.64
2019-05-22T06:15:05.868Z,1007.66
2019-05-22T06:16:05.861Z,1007.65
2019-05-22T06:17:05.837Z,1007.66
2019-05-22T06:18:05.825Z,1007.68
2019-05-22T06:19:05.853Z,1007.68
2019-05-22T06:20:05.819Z,1007.66
2019-05-22T06:21:05.813Z,1007.69
2019-05-22T06:22:05.797Z,1007.64
2019-05-22T06:23:05.787Z,1007.68
2019-05-22T06:24:05.787Z,1007.79
2019-05-22T06:25:06.085Z,1007.74
2019-05-22T06:26:05.759Z,1007.77
2019-05-22T06:27:05.730Z,1007.81
2019-05-22T06:28:05.745Z,1007.76
2019-05-22T06:29:05.749Z,1007.89
2019-05-22T06:30:05.703Z,1007.97
2019-05-22T06:31:05.691Z,1007.93
2019-05-22T06:32:05.680Z,1008.02
2019-05-22T06:33:05.681Z,1007.91
2019-05-22T06:34:05.655Z,1007.96
2019-05-22T06:35:05.660Z,1007.97
2019-05-22T06:36:05.632Z,1007.87
2019-05-22T06:37:05.620Z,1007.98
2019-05-22T06:38:05.609Z,1007.96
2019-05-22T06:39:05.614Z,1007.84
2019-05-22T06:40:05.661Z,1008.06
2019-05-22T06:41:05.591Z,1008.13
2019-05-22T06:42:05.599Z,1008.10
2019-05-22T06:43:05.560Z,1008.04
2019-05-22T06:44:05.564Z,1008.07
2019-05-22T06:45:05.810Z,1008.06
2019-05-22T06:46:05.533Z,1008.09
2019-05-22T06:47:05.551Z,1008.17
2019-05-22T06:48:05.511Z,1008.04
2019-05-22T06:49:05.499Z,1008.11
2019-05-22T06:50:05.489Z,1008.12
2019-05-22T06:51:18.625Z,1008.12
2019-05-22T06:52:06.461Z,1008.09
2019-05-22T06:53:09.816Z,1008.11
2019-05-22T06:54:05.481Z,1008.10
2019-05-22T06:55:05.430Z,1008.12
2019-05-22T06:56:05.458Z,1008.15
2019-05-22T06:57:05.407Z,1008.22
2019-05-22T06:58:05.397Z,1008.14
2019-05-22T06:59:05.380Z,1008.13
2019-05-22T07:00:14.865Z,1008.19
2019-05-22T07:01:06.381Z,1008.21
2019-05-22T07:02:05.362Z,1008.38
2019-05-22T07:03:05.344Z,1008.28
2019-05-22T07:04:05.339Z,1008.35
2019-05-22T07:05:05.318Z,1008.29
2019-05-22T07:06:05.326Z,1008.29
2019-05-22T07:07:05.313Z,1008.30
2019-05-22T07:08:05.317Z,1008.26
2019-05-22T07:09:05.287Z,1008.34
2019-05-22T07:10:05.265Z,1008.35
2019-05-22T07:11:05.250Z,1008.25
2019-05-22T07:12:05.261Z,1008.23
2019-05-22T07:13:05.277Z,1008.29
2019-05-22T07:14:05.218Z,1008.29
2019-05-22T07:15:05.229Z,1008.25
2019-05-22T07:16:05.216Z,1008.31
2019-05-22T07:17:05.183Z,1008.31
2019-05-22T07:18:05.198Z,1008.29
2019-05-22T07:19:05.186Z,1008.35
2019-05-22T07:20:05.161Z,1008.37
2019-05-22T07:21:05.156Z,1008.28
2019-05-22T07:22:05.137Z,1008.37
2019-05-22T07:23:05.150Z,1008.33
2019-05-22T07:24:05.123Z,1008.39
2019-05-22T07:25:05.111Z,1008.32
2019-05-22T07:26:05.103Z,1008.33
2019-05-22T07:27:05.092Z,1008.40
2019-05-22T07:28:05.128Z,1008.40
2019-05-22T07:29:05.298Z,1008.45
2019-05-22T07:30:05.066Z,1008.40
2019-05-22T07:31:05.042Z,1008.40
2019-05-22T07:32:05.024Z,1008.41
2019-05-22T07:33:05.022Z,1008.39
2019-05-22T07:34:05.064Z,1008.47
2019-05-22T07:35:04.992Z,1008.41
2019-05-22T07:36:10.124Z,1008.43
2019-05-22T07:37:05.993Z,1008.43
2019-05-22T07:38:05.023Z,1008.37
2019-05-22T07:39:04.970Z,1008.45
2019-05-22T07:40:04.934Z,1008.41
2019-05-22T07:41:04.927Z,1008.55
2019-05-22T07:42:04.917Z,1008.53
2019-05-22T07:43:04.938Z,1008.51
2019-05-22T07:44:04.902Z,1008.48
2019-05-22T07:45:04.887Z,1008.52
2019-05-22T07:46:04.939Z,1008.39
2019-05-22T07:47:04.865Z,1008.44
2019-05-22T07:48:05.132Z,1008.37
2019-05-22T07:49:04.862Z,1008.41
2019-05-22T07:50:04.861Z,1008.37
2019-05-22T07:51:04.819Z,1008.45
2019-05-22T07:52:04.816Z,1008.41
2019-05-22T07:53:04.800Z,1008.60
2019-05-22T07:54:04.853Z,1008.46
2019-05-22T07:55:04.782Z,1008.56
2019-05-22T07:56:04.834Z,1008.52
2019-05-22T07:57:04.777Z,1008.50
2019-05-22T07:58:04.743Z,1008.56
2019-05-22T07:59:05.107Z,1008.63
2019-05-22T08:00:04.732Z,1008.65
2019-05-22T08:01:04.723Z,1008.61
2019-05-22T08:02:04.720Z,1008.58
2019-05-22T08:03:04.697Z,1008.65
2019-05-22T08:04:04.704Z,1008.62
2019-05-22T08:05:06.719Z,1008.67
2019-05-22T08:06:13.559Z,1008.63
2019-05-22T08:07:04.644Z,1008.68
2019-05-22T08:08:04.647Z,1008.81
2019-05-22T08:09:05.127Z,1008.75
2019-05-22T08:10:04.621Z,1008.75
2019-05-22T08:11:04.612Z,1008.74
2019-05-22T08:12:04.609Z,1008.79
2019-05-22T08:13:04.599Z,1008.77
2019-05-22T08:14:04.581Z,1008.73
2019-05-22T08:15:04.562Z,1008.79
2019-05-22T08:16:04.676Z,1008.72
2019-05-22T08:17:04.561Z,1008.74
2019-05-22T08:18:04.539Z,1008.74
2019-05-22T08:19:04.549Z,1008.71
2019-05-22T08:20:04.509Z,1008.75
2019-05-22T08:21:04.675Z,1008.75
2019-05-22T08:22:07.363Z,1008.77
2019-05-22T08:23:04.495Z,1008.69
2019-05-22T08:24:04.538Z,1008.79
2019-05-22T08:25:04.451Z,1008.84
2019-05-22T08:26:04.435Z,1008.78
2019-05-22T08:27:04.427Z,1009.02
2019-05-22T08:28:04.421Z,1008.96
2019-05-22T08:29:04.442Z,1008.99
2019-05-22T08:30:04.394Z,1008.88
2019-05-22T08:31:04.381Z,1008.94
2019-05-22T08:32:04.373Z,1008.84
2019-05-22T08:33:04.383Z,1008.85
2019-05-22T08:34:04.438Z,1008.95
2019-05-22T08:35:04.350Z,1008.92
2019-05-22T08:36:04.324Z,1008.87
2019-05-22T08:37:04.314Z,1008.86
2019-05-22T08:38:04.303Z,1008.94
2019-05-22T08:39:04.351Z,1008.93
2019-05-22T08:40:04.303Z,1008.95
2019-05-22T08:41:04.272Z,1008.93
2019-05-22T08:42:04.261Z,1008.87
2019-05-22T08:43:04.251Z,1008.97
2019-05-22T08:44:16.242Z,1008.89
2019-05-22T08:45:05.239Z,1009.00
2019-05-22T08:46:04.235Z,1008.88
2019-05-22T08:47:04.209Z,1008.84
2019-05-22T08:48:04.194Z,1008.93
2019-05-22T08:49:04.239Z,1008.87
2019-05-22T08:50:04.185Z,1008.95
2019-05-22T08:51:04.220Z,1008.84
2019-05-22T08:52:04.186Z,1008.92
2019-05-22T08:53:04.148Z,1008.88
2019-05-22T08:54:12.540Z,1008.94
2019-05-22T08:55:04.125Z,1008.89
2019-05-22T08:56:04.113Z,1008.90
2019-05-22T08:57:13.151Z,1008.99
2019-05-22T08:58:04.141Z,1008.96
2019-05-22T08:59:18.431Z,1008.99
2019-05-22T09:00:05.068Z,1009.02
2019-05-22T09:01:04.056Z,1009.01
2019-05-22T09:02:04.061Z,1008.98
2019-05-22T09:03:04.377Z,1009.02
2019-05-22T09:04:04.048Z,1009.01
2019-05-22T09:05:04.030Z,1009.03
2019-05-22T09:06:04.005Z,1009.02
2019-05-22T09:07:03.997Z,1009.02
2019-05-22T09:08:03.980Z,1009.08
2019-05-22T09:09:03.995Z,1009.04
2019-05-22T09:10:03.989Z,1009.02
2019-05-22T09:11:03.945Z,1009.06
2019-05-22T09:12:03.969Z,1009.04
2019-05-22T09:13:03.927Z,1009.08
2019-05-22T09:14:03.916Z,1009.15
2019-05-22T09:15:03.925Z,1009.08
2019-05-22T09:16:03.901Z,1009.20
2019-05-22T09:17:03.879Z,1009.21
2019-05-22T09:18:03.869Z,1009.17
2019-05-22T09:19:03.863Z,1009.21
2019-05-22T09:20:03.906Z,1009.17
2019-05-22T09:21:03.842Z,1009.21
2019-05-22T09:22:03.836Z,1009.19
2019-05-22T09:23:03.813Z,1009.22
2019-05-22T09:24:03.803Z,1009.16
2019-05-22T09:25:04.003Z,1009.22
2019-05-22T09:26:03.791Z,1009.21
2019-05-22T09:27:03.781Z,1009.14
2019-05-22T09:28:03.760Z,1009.11
2019-05-22T09:29:03.752Z,1009.20
2019-05-22T09:30:03.759Z,1009.31
2019-05-22T09:31:03.761Z,1009.27
2019-05-22T09:32:03.880Z,1009.41
2019-05-22T09:33:03.708Z,1009.27
2019-05-22T09:34:03.703Z,1009.44
2019-05-22T09:35:03.701Z,1009.28
2019-05-22T09:36:03.843Z,1009.32
2019-05-22T09:37:03.667Z,1009.31
2019-05-22T09:38:03.666Z,1009.32
2019-05-22T09:39:03.658Z,1009.30
2019-05-22T09:40:03.661Z,1009.37
2019-05-22T09:41:03.621Z,1009.38
2019-05-22T09:42:03.616Z,1009.38
2019-05-22T09:43:03.684Z,1009.37
2019-05-22T09:44:03.594Z,1009.38
2019-05-22T09:45:03.599Z,1009.36
2019-05-22T09:46:03.578Z,1009.38
2019-05-22T09:47:03.576Z,1009.38
2019-05-22T09:48:03.541Z,1009.40
2019-05-22T09:49:03.543Z,1009.40
2019-05-22T09:50:03.526Z,1009.40
2019-05-22T09:51:03.528Z,1009.39
2019-05-22T09:52:03.537Z,1009.43
2019-05-22T09:53:03.488Z,1009.39
2019-05-22T09:54:03.484Z,1009.48
2019-05-22T09:55:03.501Z,1009.44
2019-05-22T09:56:03.463Z,1009.46
2019-05-22T09:57:03.456Z,1009.46
2019-05-22T09:58:03.440Z,1009.45
2019-05-22T09:59:03.420Z,1009.44
2019-05-22T10:00:03.419Z,1009.45
2019-05-22T10:01:03.418Z,1009.46
2019-05-22T10:02:03.417Z,1009.44
2019-05-22T10:03:03.523Z,1009.49
2019-05-22T10:04:03.365Z,1009.57
2019-05-22T10:05:03.364Z,1009.44
2019-05-22T10:06:03.463Z,1009.53
2019-05-22T10:07:03.365Z,1009.53
2019-05-22T10:08:03.341Z,1009.53
2019-05-22T10:09:03.307Z,1009.55
2019-05-22T10:10:03.309Z,1009.56
2019-05-22T10:11:03.301Z,1009.55
2019-05-22T10:12:03.307Z,1009.59
2019-05-22T10:13:03.292Z,1009.55
2019-05-22T10:14:03.276Z,1009.58
2019-05-22T10:15:04.134Z,1009.62
2019-05-22T10:16:03.268Z,1009.65
2019-05-22T10:17:03.237Z,1009.65
2019-05-22T10:18:03.277Z,1009.62
2019-05-22T10:19:03.224Z,1009.62
2019-05-22T10:20:03.211Z,1009.63
2019-05-22T10:21:03.217Z,1009.57
2019-05-22T10:22:03.170Z,1009.63
2019-05-22T10:24:04.156Z,1009.67
2019-05-22T10:25:15.056Z,1009.71
2019-05-22T10:26:04.136Z,1009.64
2019-05-22T10:27:03.112Z,1009.63
2019-05-22T10:28:03.126Z,1009.65
2019-05-22T10:29:03.112Z,1009.64
2019-05-22T10:30:03.106Z,1009.67
2019-05-22T10:31:03.283Z,1009.77
2019-05-22T10:32:03.066Z,1009.75
2019-05-22T10:33:03.123Z,1009.89
2019-05-22T10:34:03.055Z,1009.84
2019-05-22T10:35:03.050Z,1009.74
2019-05-22T10:36:03.034Z,1009.92
2019-05-22T10:37:03.027Z,1009.75
2019-05-22T10:38:02.999Z,1009.76
2019-05-22T10:39:03.102Z,1009.81
2019-05-22T10:40:02.981Z,1009.74
2019-05-22T10:41:02.968Z,1009.72
2019-05-22T10:42:02.973Z,1009.76
2019-05-22T10:43:02.965Z,1009.77
2019-05-22T10:44:02.965Z,1009.78
2019-05-22T10:45:02.922Z,1010.04
2019-05-22T10:46:02.947Z,1009.74
2019-05-22T10:47:02.894Z,1009.77
2019-05-22T10:48:02.907Z,1009.75
2019-05-22T10:49:02.901Z,1009.84
2019-05-22T10:50:02.864Z,1009.83
2019-05-22T10:51:02.875Z,1009.90
2019-05-22T10:52:02.917Z,1009.79
2019-05-22T10:53:02.841Z,1009.84
2019-05-22T10:54:02.879Z,1009.90
2019-05-22T10:55:02.834Z,1009.92
2019-05-22T10:56:02.966Z,1009.83
2019-05-22T10:57:02.792Z,1009.90
2019-05-22T10:58:02.797Z,1009.90
2019-05-22T10:59:02.767Z,1009.89
2019-05-22T11:00:02.781Z,1009.93
2019-05-22T11:01:02.787Z,1009.94
2019-05-22T11:02:02.786Z,1010.02
2019-05-22T11:03:02.735Z,1010.01
2019-05-22T11:04:02.737Z,1009.99
2019-05-22T11:05:02.724Z,1009.92
2019-05-22T11:06:07.094Z,1009.93
2019-05-22T11:07:03.703Z,1009.94
2019-05-22T11:08:02.674Z,1009.98
2019-05-22T11:09:02.666Z,1010.05
2019-05-22T11:10:02.661Z,1010.02
2019-05-22T11:11:02.637Z,1010.02
2019-05-22T11:12:02.637Z,1010.01
2019-05-22T11:13:02.661Z,1010.00
2019-05-22T11:14:02.614Z,1009.99
2019-05-22T11:15:02.607Z,1009.90
2019-05-22T11:16:02.606Z,1010.08
2019-05-22T11:17:02.573Z,1010.02
2019-05-22T11:18:02.560Z,1009.98
2019-05-22T11:19:02.552Z,1009.98
2019-05-22T11:20:02.559Z,1010.02
2019-05-22T11:21:02.529Z,1009.99
2019-05-22T11:22:02.528Z,1010.05
2019-05-22T11:23:02.700Z,1010.03
2019-05-22T11:24:02.493Z,1010.04
2019-05-22T11:25:02.498Z,1010.05
2019-05-22T11:26:02.473Z,1010.05
2019-05-22T11:27:02.469Z,1010.07
2019-05-22T11:28:02.457Z,1010.11
2019-05-22T11:29:02.456Z,1010.15
2019-05-22T11:30:02.462Z,1010.16
2019-05-22T11:31:02.442Z,1010.15
2019-05-22T11:32:02.427Z,1010.16
2019-05-22T11:33:02.392Z,1010.20
2019-05-22T11:34:02.397Z,1010.11
2019-05-22T11:35:02.394Z,1010.22
2019-05-22T11:36:02.359Z,1010.19
2019-05-22T11:37:02.369Z,1010.18
2019-05-22T11:38:02.341Z,1010.19
2019-05-22T11:39:02.335Z,1010.23
2019-05-22T11:40:02.357Z,1010.22
2019-05-22T11:41:02.304Z,1010.28
2019-05-22T11:42:02.314Z,1010.22
2019-05-22T11:43:02.412Z,1010.26
2019-05-22T11:44:02.279Z,1010.29
2019-05-22T11:45:02.272Z,1010.23
2019-05-22T11:46:02.273Z,1010.35
2019-05-22T11:47:02.272Z,1010.30
2019-05-22T11:48:02.235Z,1010.26
2019-05-22T11:49:02.212Z,1010.26
2019-05-22T11:50:02.323Z,1010.21
2019-05-22T11:51:02.210Z,1010.28
2019-05-22T11:52:02.215Z,1010.31
2019-05-22T11:53:02.180Z,1010.31
2019-05-22T11:54:09.222Z,1010.37
2019-05-22T11:55:03.160Z,1010.29
2019-05-22T11:56:02.165Z,1010.30
2019-05-22T11:57:02.140Z,1010.39
2019-05-22T11:58:02.122Z,1010.38
2019-05-22T11:59:02.177Z,1010.32
2019-05-22T12:00:02.101Z,1010.31
2019-05-22T12:01:02.144Z,1010.37
2019-05-22T12:02:02.089Z,1010.32
2019-05-22T12:03:02.071Z,1010.31
2019-05-22T12:04:02.062Z,1010.32
2019-05-22T12:05:02.047Z,1010.45
2019-05-22T12:06:02.027Z,1010.40
2019-05-22T12:07:02.056Z,1010.39
2019-05-22T12:08:02.028Z,1010.37